aviador You're here:

KPBG Decoded Metar

PLATTSBURGH in NY, USA
Report Time2017-08-16 14:53:00
UTC Time2017-08-16 15:05:04
Flight Rules vfr VFR
Wind060° at 06 kt
W.Decomp.*RWY 35: 0.5 kt HW 6.0 kt RCW
W.Rank060° ranks 32
Current wind is below 060° avg. (6.2)
Visibility9999 m
Phenomena:N/A
Clouds:N/A
Expected CloudBase > 4,400 ft AGL from Temp-Dew spread
CeilingNone
Temp20°C (ISA +5)
Dew Point09°C (49% RH)
AAT17.6°C
QNH1017 hPa
Density Alt899 ft
Elevation236 ft
Report Wrong Elevation
Raw Report
METAR KPBG 161453Z AUTO 06006KT 10SM CLR 20/09 A3004 RMK AO2 SLP171
T02000089 51012=

Extra information for KPBG:More info

Metar Taf Metar & Taf Last 4 Metars F.Rules Stats Wind Profile Meteogram Temp Stats Airport Information Weather charts Add Link Nearby VenuesMetar ALERT Operation Metar Decoded Social comments

AIRNAV info for KPBG